createdAt,value
2023-08-15T00:00:00.608Z,126.83
2023-08-15T00:01:03.530Z,127.00
2023-08-15T00:02:06.316Z,126.67
2023-08-15T00:03:08.973Z,124.67
2023-08-15T00:04:11.644Z,123.17
2023-08-15T00:05:14.401Z,123.00
2023-08-15T00:06:18.559Z,123.00
2023-08-15T00:07:21.290Z,123.00
2023-08-15T00:08:24.107Z,123.50
2023-08-15T00:09:26.931Z,124.00
2023-08-15T00:10:29.520Z,125.50
2023-08-15T00:11:32.138Z,126.67
2023-08-15T00:12:34.709Z,128.33
2023-08-15T00:13:37.398Z,129.50
2023-08-15T00:14:40.029Z,130.67
2023-08-15T00:15:42.741Z,131.33
2023-08-15T00:16:45.400Z,132.17
2023-08-15T00:17:48.053Z,133.17
2023-08-15T00:18:50.854Z,136.83
2023-08-15T00:19:53.441Z,138.17
2023-08-15T00:20:56.052Z,140.17
2023-08-15T00:21:58.698Z,142.33
2023-08-15T00:23:01.537Z,144.00
2023-08-15T00:24:04.423Z,145.83
2023-08-15T00:25:07.254Z,146.33
2023-08-15T00:26:09.961Z,148.33
2023-08-15T00:27:12.580Z,149.33
2023-08-15T00:28:15.200Z,149.00
2023-08-15T00:29:17.788Z,148.83
2023-08-15T00:30:20.555Z,149.00
2023-08-15T00:31:23.182Z,149.50
2023-08-15T00:32:25.805Z,149.00
2023-08-15T00:33:28.397Z,150.00
2023-08-15T00:34:31.040Z,150.00
2023-08-15T00:35:34.201Z,150.33
2023-08-15T00:36:37.030Z,153.00
2023-08-15T00:37:39.689Z,156.67
2023-08-15T00:38:45.093Z,159.33
2023-08-15T00:39:47.742Z,162.83
2023-08-15T00:40:50.358Z,163.00
2023-08-15T00:41:52.947Z,161.83
2023-08-15T00:42:55.574Z,161.00
2023-08-15T00:43:59.573Z,160.00
2023-08-15T00:45:02.308Z,160.17
2023-08-15T00:46:07.512Z,160.33
2023-08-15T00:47:10.310Z,161.00
2023-08-15T00:48:13.421Z,159.17
2023-08-15T00:49:16.079Z,158.00
2023-08-15T00:50:18.953Z,156.33
2023-08-15T00:51:21.714Z,155.00
2023-08-15T00:52:24.405Z,154.00
2023-08-15T00:53:28.943Z,153.00
2023-08-15T00:54:32.344Z,130.33
2023-08-15T00:55:35.220Z,112.50
2023-08-15T00:56:37.853Z,107.83
2023-08-15T00:57:40.448Z,106.67
2023-08-15T00:58:43.605Z,105.17
2023-08-15T00:59:46.562Z,105.67
2023-08-15T01:00:49.236Z,100.17
2023-08-15T01:01:51.963Z,97.83
2023-08-15T01:02:55.017Z,96.83
2023-08-15T01:03:58.004Z,97.50
2023-08-15T01:05:00.699Z,97.67
2023-08-15T01:06:03.319Z,98.67
2023-08-15T01:07:06.189Z,100.67
2023-08-15T01:08:08.833Z,102.00
2023-08-15T01:09:11.488Z,103.17
2023-08-15T01:10:14.119Z,104.00
2023-08-15T01:11:16.889Z,105.00
2023-08-15T01:12:32.185Z,105.00
2023-08-15T01:13:40.701Z,105.00
2023-08-15T01:14:51.218Z,105.83
2023-08-15T01:15:53.970Z,104.83
2023-08-15T01:16:58.138Z,104.17
2023-08-15T01:18:09.657Z,105.00
2023-08-15T01:19:27.360Z,105.83
2023-08-15T01:20:33.748Z,107.50
2023-08-15T01:21:41.028Z,109.00
2023-08-15T01:22:45.900Z,109.67
2023-08-15T01:23:48.745Z,110.67
2023-08-15T01:24:51.908Z,112.00
2023-08-15T01:25:57.647Z,112.83
2023-08-15T01:27:00.229Z,113.00
2023-08-15T01:28:03.854Z,113.83
2023-08-15T01:29:06.513Z,115.00
2023-08-15T01:30:09.550Z,115.00
2023-08-15T01:31:15.194Z,115.33
2023-08-15T01:32:49.677Z,116.00
2023-08-15T01:34:03.123Z,116.33
2023-08-15T01:35:42.665Z,116.50
2023-08-15T01:36:48.185Z,116.00
2023-08-15T01:37:57.037Z,116.83
2023-08-15T01:39:05.160Z,117.00
2023-08-15T01:40:11.293Z,117.00
2023-08-15T01:41:16.774Z,116.33
2023-08-15T01:42:22.951Z,116.00
2023-08-15T01:43:26.156Z,115.17
2023-08-15T01:44:30.832Z,115.00
2023-08-15T01:45:34.798Z,115.67
2023-08-15T01:46:37.615Z,117.67
2023-08-15T01:47:40.280Z,118.50
2023-08-15T01:48:43.698Z,118.83
2023-08-15T01:49:46.322Z,119.00
2023-08-15T01:50:48.911Z,119.00
2023-08-15T01:51:52.116Z,120.83
2023-08-15T01:52:55.041Z,123.17
2023-08-15T01:53:57.650Z,125.00
2023-08-15T01:55:00.281Z,127.17
2023-08-15T01:56:03.110Z,130.17
2023-08-15T01:57:05.713Z,132.00
2023-08-15T01:58:08.377Z,138.33
2023-08-15T01:59:52.161Z,147.00
2023-08-15T02:00:54.791Z,150.33
2023-08-15T02:01:57.463Z,149.17
2023-08-15T02:03:00.297Z,146.00
2023-08-15T02:04:02.982Z,144.17
2023-08-15T02:05:06.108Z,142.67
2023-08-15T02:06:09.357Z,141.50
2023-08-15T02:07:12.035Z,140.17
2023-08-15T02:08:14.635Z,138.50
2023-08-15T02:09:17.937Z,137.83
2023-08-15T02:10:20.584Z,137.00
2023-08-15T02:11:23.192Z,137.00
2023-08-15T02:12:25.794Z,136.17
2023-08-15T02:13:31.922Z,136.00
2023-08-15T02:14:34.608Z,136.00
2023-08-15T02:15:37.264Z,139.83
2023-08-15T02:16:39.964Z,141.00
2023-08-15T02:17:42.609Z,143.67
2023-08-15T02:18:45.276Z,147.83
2023-08-15T02:19:47.964Z,148.17
2023-08-15T02:20:50.614Z,148.00
2023-08-15T02:21:53.228Z,148.17
2023-08-15T02:22:55.803Z,149.33
2023-08-15T02:23:58.418Z,149.83
2023-08-15T02:25:01.128Z,153.00
2023-08-15T02:26:04.382Z,154.83
2023-08-15T02:27:07.046Z,154.83
2023-08-15T02:28:09.862Z,154.00
2023-08-15T02:29:14.450Z,153.50
2023-08-15T02:30:17.131Z,152.83
2023-08-15T02:31:19.806Z,152.33
2023-08-15T02:32:22.504Z,151.17
2023-08-15T02:33:25.202Z,150.50
2023-08-15T02:34:27.832Z,149.00
2023-08-15T02:35:30.456Z,147.33
2023-08-15T02:36:33.046Z,146.83
2023-08-15T02:37:35.859Z,144.50
2023-08-15T02:38:38.500Z,144.00
2023-08-15T02:39:41.108Z,142.00
2023-08-15T02:40:44.230Z,140.50
2023-08-15T02:41:46.892Z,137.83
2023-08-15T02:42:49.533Z,134.00
2023-08-15T02:43:52.156Z,130.83
2023-08-15T02:44:55.589Z,130.00
2023-08-15T02:45:58.631Z,129.83
2023-08-15T02:47:01.268Z,128.83
2023-08-15T02:48:04.196Z,126.33
2023-08-15T02:49:07.156Z,123.17
2023-08-15T02:50:09.979Z,123.67
2023-08-15T02:51:12.593Z,125.00
2023-08-15T02:52:15.239Z,125.50
2023-08-15T02:53:17.879Z,126.17
2023-08-15T02:54:20.478Z,126.33
2023-08-15T02:55:23.077Z,125.00
2023-08-15T02:56:25.782Z,125.00
2023-08-15T02:57:28.385Z,126.00
2023-08-15T02:58:30.967Z,126.00
2023-08-15T02:59:33.588Z,126.00
2023-08-15T03:00:37.048Z,126.00
2023-08-15T03:01:39.738Z,126.17
2023-08-15T03:02:42.417Z,127.00
2023-08-15T03:03:45.182Z,127.00
2023-08-15T03:04:47.817Z,127.00
2023-08-15T03:05:50.411Z,127.00
2023-08-15T03:06:53.058Z,127.00
2023-08-15T03:07:55.697Z,127.00
2023-08-15T03:08:58.769Z,127.00
2023-08-15T03:10:01.418Z,127.00
2023-08-15T03:11:04.016Z,127.00
2023-08-15T03:12:06.703Z,125.17
2023-08-15T03:13:09.343Z,122.67
2023-08-15T03:14:11.976Z,120.67
2023-08-15T03:15:14.573Z,119.50
2023-08-15T03:16:17.209Z,119.67
2023-08-15T03:17:20.759Z,120.00
2023-08-15T03:18:23.662Z,120.17
2023-08-15T03:19:26.310Z,121.00
2023-08-15T03:20:30.708Z,122.50
2023-08-15T03:21:33.325Z,125.33
2023-08-15T03:22:35.950Z,129.00
2023-08-15T03:23:38.661Z,162.83
2023-08-15T03:24:41.755Z,222.67
2023-08-15T03:25:44.391Z,271.17
2023-08-15T03:26:47.066Z,279.67
2023-08-15T03:27:49.684Z,276.17
2023-08-15T03:28:53.490Z,272.67
2023-08-15T03:29:56.157Z,270.33
2023-08-15T03:30:58.819Z,265.50
2023-08-15T03:32:01.459Z,249.83
2023-08-15T03:33:04.353Z,237.00
2023-08-15T03:34:07.053Z,229.67
2023-08-15T03:35:09.696Z,213.83
2023-08-15T03:36:12.347Z,196.83
2023-08-15T03:37:14.972Z,186.17
2023-08-15T03:38:19.773Z,178.83
2023-08-15T03:39:22.419Z,171.50
2023-08-15T03:40:25.052Z,164.00
2023-08-15T03:41:27.648Z,154.00
2023-08-15T03:42:30.269Z,147.50
2023-08-15T03:43:33.933Z,142.17
2023-08-15T03:44:36.596Z,137.67
2023-08-15T03:45:40.019Z,135.00
2023-08-15T03:46:42.669Z,133.83
2023-08-15T03:47:45.346Z,136.33
2023-08-15T03:48:48.253Z,135.83
2023-08-15T03:49:50.897Z,138.83
2023-08-15T03:50:55.832Z,133.67
2023-08-15T03:51:58.457Z,135.50
2023-08-15T03:53:01.710Z,140.17
2023-08-15T03:54:04.600Z,142.17
2023-08-15T03:55:07.439Z,143.17
2023-08-15T03:56:10.032Z,144.00
2023-08-15T03:57:12.682Z,144.83
2023-08-15T03:58:15.309Z,145.83
2023-08-15T03:59:17.979Z,146.00
2023-08-15T04:00:20.670Z,146.17
2023-08-15T04:01:23.319Z,147.00
2023-08-15T04:02:25.997Z,147.00
2023-08-15T04:03:28.800Z,147.50
2023-08-15T04:04:31.465Z,148.33
2023-08-15T04:05:34.055Z,149.00
2023-08-15T04:06:36.671Z,149.00
2023-08-15T04:07:40.201Z,147.50
2023-08-15T04:08:42.869Z,220.50
2023-08-15T04:09:45.540Z,272.50
2023-08-15T04:10:48.571Z,259.17
2023-08-15T04:11:51.182Z,260.33
2023-08-15T04:12:53.793Z,209.67
2023-08-15T04:13:56.425Z,209.17
2023-08-15T04:14:59.079Z,201.67
2023-08-15T04:16:01.724Z,224.00
2023-08-15T04:17:06.513Z,225.50
2023-08-15T04:18:10.334Z,232.83
2023-08-15T04:19:13.012Z,218.50
2023-08-15T04:20:15.644Z,204.67
2023-08-15T04:21:18.647Z,199.67
2023-08-15T04:22:21.257Z,201.83
2023-08-15T04:23:23.901Z,277.83
2023-08-15T04:24:26.511Z,283.83
2023-08-15T04:25:31.706Z,251.17
2023-08-15T04:26:34.550Z,265.67
2023-08-15T04:27:38.336Z,261.83
2023-08-15T04:28:40.974Z,227.83
2023-08-15T04:29:44.200Z,211.67
2023-08-15T04:30:46.818Z,206.33
2023-08-15T04:31:49.546Z,197.33
2023-08-15T04:32:52.206Z,182.17
2023-08-15T04:33:54.836Z,173.33
2023-08-15T04:34:58.258Z,187.83
2023-08-15T04:36:00.990Z,215.83
2023-08-15T04:37:03.649Z,238.83
2023-08-15T04:38:06.469Z,237.17
2023-08-15T04:39:09.097Z,230.17
2023-08-15T04:40:14.076Z,219.17
2023-08-15T04:41:18.491Z,197.83
2023-08-15T04:42:21.667Z,188.50
2023-08-15T04:43:24.264Z,185.83
2023-08-15T04:44:26.896Z,193.17
2023-08-15T04:45:29.558Z,196.67
2023-08-15T04:46:32.233Z,210.83
2023-08-15T04:47:35.365Z,216.33
2023-08-15T04:48:38.014Z,215.33
2023-08-15T04:49:40.619Z,213.00
2023-08-15T04:50:43.246Z,211.33
2023-08-15T04:51:45.850Z,211.33
2023-08-15T04:52:48.784Z,211.67
2023-08-15T04:53:51.417Z,209.67
2023-08-15T04:54:54.114Z,203.50
2023-08-15T04:55:56.798Z,200.33
2023-08-15T04:56:59.480Z,199.00
2023-08-15T04:58:02.227Z,197.67
2023-08-15T04:59:04.930Z,192.83
2023-08-15T05:00:10.061Z,185.00
2023-08-15T05:01:13.107Z,173.67
2023-08-15T05:02:15.836Z,171.83
2023-08-15T05:03:18.460Z,177.50
2023-08-15T05:04:21.050Z,173.00
2023-08-15T05:05:24.837Z,167.67
2023-08-15T05:06:27.509Z,182.50
2023-08-15T05:07:30.159Z,191.33
2023-08-15T05:08:34.889Z,180.33
2023-08-15T05:09:38.477Z,173.00
2023-08-15T05:10:41.118Z,174.50
2023-08-15T05:11:47.081Z,172.50
2023-08-15T05:12:49.722Z,174.33
2023-08-15T05:13:52.379Z,173.17
2023-08-15T05:14:55.006Z,173.17
2023-08-15T05:15:57.695Z,176.00
2023-08-15T05:17:00.325Z,177.50
2023-08-15T05:18:03.110Z,172.17
2023-08-15T05:19:05.795Z,172.33
2023-08-15T05:20:09.974Z,167.50
2023-08-15T05:21:12.557Z,162.17
2023-08-15T05:22:15.177Z,161.00
2023-08-15T05:23:17.809Z,162.67
2023-08-15T05:24:21.259Z,159.50
2023-08-15T05:25:23.932Z,153.67
2023-08-15T05:26:26.540Z,155.33
2023-08-15T05:27:29.196Z,157.17
2023-08-15T05:28:31.828Z,155.00
2023-08-15T05:29:34.467Z,154.50
2023-08-15T05:30:37.302Z,156.00
2023-08-15T05:31:39.928Z,157.33
2023-08-15T05:32:42.558Z,161.00
2023-08-15T05:33:45.217Z,162.00
2023-08-15T05:34:47.807Z,162.17
2023-08-15T05:35:50.513Z,164.17
2023-08-15T05:36:53.154Z,165.83
2023-08-15T05:37:55.978Z,166.50
2023-08-15T05:38:58.702Z,163.17
2023-08-15T05:40:04.246Z,156.00
2023-08-15T05:41:07.538Z,156.33
2023-08-15T05:42:10.139Z,156.67
2023-08-15T05:43:12.740Z,155.50
2023-08-15T05:44:15.335Z,155.67
2023-08-15T05:45:18.070Z,157.17
2023-08-15T05:46:20.734Z,158.33
2023-08-15T05:47:23.567Z,159.50
2023-08-15T05:48:26.306Z,160.67
2023-08-15T05:49:28.938Z,162.83
2023-08-15T05:50:31.602Z,164.50
2023-08-15T05:51:34.210Z,163.17
2023-08-15T05:52:36.959Z,160.33
2023-08-15T05:53:39.579Z,159.17
2023-08-15T05:54:42.301Z,159.50
2023-08-15T05:55:44.888Z,162.00
2023-08-15T05:56:47.536Z,161.17
2023-08-15T05:57:50.133Z,161.67
2023-08-15T05:58:52.731Z,165.00
2023-08-15T05:59:55.391Z,166.00
2023-08-15T06:00:58.006Z,166.00
2023-08-15T06:02:00.652Z,167.00
2023-08-15T06:03:03.396Z,168.00
2023-08-15T06:04:06.265Z,167.00
2023-08-15T06:05:09.070Z,163.00
2023-08-15T06:06:11.725Z,158.00
2023-08-15T06:07:14.403Z,154.83
2023-08-15T06:08:17.014Z,152.33
2023-08-15T06:09:19.677Z,152.00
2023-08-15T06:10:22.350Z,153.00
2023-08-15T06:11:24.973Z,153.67
2023-08-15T06:12:27.606Z,155.17
2023-08-15T06:13:30.356Z,157.50
2023-08-15T06:14:33.570Z,165.83
2023-08-15T06:15:36.495Z,167.83
2023-08-15T06:16:39.188Z,167.33
2023-08-15T06:17:43.230Z,168.33
2023-08-15T06:18:45.878Z,169.33
2023-08-15T06:19:48.510Z,168.83
2023-08-15T06:20:51.178Z,167.83
2023-08-15T06:21:53.789Z,166.33
2023-08-15T06:22:56.608Z,157.33
2023-08-15T06:23:59.247Z,149.50
2023-08-15T06:25:01.820Z,151.17
2023-08-15T06:26:04.961Z,152.17
2023-08-15T06:27:07.614Z,153.00
2023-08-15T06:28:10.502Z,153.83
2023-08-15T06:29:13.178Z,155.33
2023-08-15T06:30:15.744Z,157.50
2023-08-15T06:31:18.449Z,161.33
2023-08-15T06:32:27.922Z,169.33
2023-08-15T06:33:30.524Z,179.50
2023-08-15T06:34:33.175Z,183.00
2023-08-15T06:35:35.805Z,188.17
2023-08-15T06:36:38.455Z,188.50
2023-08-15T06:37:41.076Z,185.50
2023-08-15T06:38:43.713Z,184.67
2023-08-15T06:39:46.350Z,184.50
2023-08-15T06:40:49.504Z,183.83
2023-08-15T06:41:52.121Z,187.33
2023-08-15T06:42:54.704Z,189.50
2023-08-15T06:43:57.294Z,189.00
2023-08-15T06:45:10.165Z,190.33
2023-08-15T06:46:12.914Z,193.50
2023-08-15T06:47:15.554Z,192.17
2023-08-15T06:48:18.206Z,193.50
2023-08-15T06:49:20.825Z,192.50
2023-08-15T06:50:23.559Z,187.83
2023-08-15T06:51:26.166Z,186.00
2023-08-15T06:52:28.849Z,183.50
2023-08-15T06:53:34.821Z,179.33
2023-08-15T06:54:37.648Z,179.00
2023-08-15T06:55:40.376Z,181.67
2023-08-15T06:56:43.248Z,189.50
2023-08-15T06:57:45.850Z,201.17
2023-08-15T06:58:48.426Z,206.67
2023-08-15T06:59:51.009Z,202.83
2023-08-15T07:00:54.052Z,200.33
2023-08-15T07:01:56.631Z,199.67
2023-08-15T07:02:59.322Z,198.67
2023-08-15T07:04:02.254Z,199.33
2023-08-15T07:05:05.577Z,198.00
2023-08-15T07:06:08.289Z,179.83
2023-08-15T07:07:10.901Z,168.33
2023-08-15T07:08:17.363Z,166.50
2023-08-15T07:09:19.990Z,161.50
2023-08-15T07:10:22.641Z,159.00
2023-08-15T07:11:25.437Z,155.17
2023-08-15T07:12:28.056Z,152.17
2023-08-15T07:13:30.746Z,151.67
2023-08-15T07:14:34.062Z,149.00
2023-08-15T07:15:37.018Z,145.67
2023-08-15T07:16:39.648Z,146.17
2023-08-15T07:17:42.680Z,147.50
2023-08-15T07:18:45.408Z,150.83
2023-08-15T07:19:48.004Z,152.33
2023-08-15T07:20:52.120Z,153.83
2023-08-15T07:21:54.848Z,151.00
2023-08-15T07:22:57.465Z,149.00
2023-08-15T07:24:00.104Z,150.33
2023-08-15T07:25:03.054Z,154.50
2023-08-15T07:26:05.674Z,168.67
2023-08-15T07:27:08.749Z,174.00
2023-08-15T07:28:11.775Z,171.83
2023-08-15T07:29:14.416Z,167.50
2023-08-15T07:30:17.276Z,165.33
2023-08-15T07:31:19.915Z,164.00
2023-08-15T07:32:22.882Z,163.83
2023-08-15T07:33:25.710Z,162.17
2023-08-15T07:34:28.383Z,154.83
2023-08-15T07:35:30.981Z,137.50
2023-08-15T07:36:33.622Z,131.67
2023-08-15T07:37:36.242Z,124.67
2023-08-15T07:38:38.834Z,123.50
2023-08-15T07:39:41.605Z,119.00
2023-08-15T07:40:45.221Z,114.50
2023-08-15T07:41:47.836Z,105.83
2023-08-15T07:42:51.219Z,98.00
2023-08-15T07:43:53.804Z,96.00
2023-08-15T07:44:56.420Z,102.17
2023-08-15T07:45:59.792Z,102.83
2023-08-15T07:47:03.173Z,98.83
2023-08-15T07:48:06.527Z,94.83
2023-08-15T07:49:09.221Z,86.83
2023-08-15T07:50:17.178Z,77.83
2023-08-15T07:51:19.816Z,79.50
2023-08-15T07:52:22.439Z,82.83
2023-08-15T07:53:25.977Z,85.50
2023-08-15T07:54:28.713Z,87.17
2023-08-15T07:55:33.643Z,88.67
2023-08-15T07:56:36.273Z,90.00
2023-08-15T07:57:39.371Z,90.67
2023-08-15T07:58:42.003Z,91.83
2023-08-15T07:59:44.626Z,92.67
2023-08-15T08:00:47.258Z,93.00
2023-08-15T08:01:49.901Z,92.83
2023-08-15T08:02:53.647Z,89.00
2023-08-15T08:03:57.076Z,86.17
2023-08-15T08:04:59.811Z,85.83
2023-08-15T08:06:05.774Z,83.83
2023-08-15T08:07:11.082Z,82.50
2023-08-15T08:08:16.774Z,83.83
2023-08-15T08:09:19.494Z,84.83
2023-08-15T08:10:22.078Z,85.83
2023-08-15T08:11:24.864Z,87.00
2023-08-15T08:12:28.869Z,86.83
2023-08-15T08:13:31.450Z,85.17
2023-08-15T08:14:35.523Z,86.00
2023-08-15T08:15:42.044Z,86.67
2023-08-15T08:16:45.103Z,88.00
2023-08-15T08:17:47.800Z,86.17
2023-08-15T08:18:50.372Z,82.17
2023-08-15T08:19:52.949Z,79.67
2023-08-15T08:20:56.519Z,77.83
2023-08-15T08:21:59.151Z,77.00
2023-08-15T08:23:01.725Z,77.50
2023-08-15T08:24:05.200Z,79.17
2023-08-15T08:25:14.848Z,82.83
2023-08-15T08:26:18.351Z,93.50
2023-08-15T08:27:20.986Z,97.50
2023-08-15T08:28:23.602Z,96.50
2023-08-15T08:29:26.204Z,95.50
2023-08-15T08:30:30.169Z,94.33
2023-08-15T08:31:34.146Z,93.67
2023-08-15T08:32:36.913Z,94.00
2023-08-15T08:33:39.496Z,93.17
2023-08-15T08:34:42.764Z,90.50
2023-08-15T08:35:45.415Z,92.00
2023-08-15T08:36:48.175Z,99.17
2023-08-15T08:37:50.962Z,101.83
2023-08-15T08:38:53.642Z,103.00
2023-08-15T08:39:56.315Z,102.33
2023-08-15T08:40:58.928Z,101.33
2023-08-15T08:42:01.997Z,99.67
2023-08-15T08:43:05.040Z,96.50
2023-08-15T08:44:07.675Z,96.67
2023-08-15T08:45:11.500Z,96.33
2023-08-15T08:46:14.444Z,96.00
2023-08-15T08:47:20.376Z,96.83
2023-08-15T08:48:23.566Z,98.00
2023-08-15T08:49:28.672Z,92.33
2023-08-15T08:50:32.266Z,68.50
2023-08-15T08:51:35.479Z,67.17
2023-08-15T08:52:42.559Z,71.67
2023-08-15T08:53:45.210Z,74.00
2023-08-15T08:55:57.255Z,76.00
2023-08-15T08:57:00.803Z,75.00
2023-08-15T08:58:05.094Z,73.00
2023-08-15T08:59:11.983Z,73.17
2023-08-15T09:00:16.103Z,72.00
2023-08-15T09:01:19.218Z,67.83
2023-08-15T09:02:23.781Z,68.00
2023-08-15T09:03:26.567Z,68.83
2023-08-15T09:04:29.225Z,70.00
2023-08-15T09:05:31.851Z,71.00
2023-08-15T09:06:34.434Z,71.50
2023-08-15T09:07:37.874Z,71.00
2023-08-15T09:08:41.258Z,70.83
2023-08-15T09:09:44.693Z,67.83
2023-08-15T09:10:47.281Z,62.50
2023-08-15T09:11:51.417Z,59.83
2023-08-15T09:12:59.505Z,58.67
2023-08-15T09:14:06.952Z,58.00
2023-08-15T09:15:11.190Z,58.00
2023-08-15T09:16:14.045Z,58.17
2023-08-15T09:17:24.985Z,59.33
2023-08-15T09:18:28.016Z,63.17
2023-08-15T09:19:30.658Z,68.33
2023-08-15T09:20:33.714Z,75.67
2023-08-15T09:21:36.353Z,79.17
2023-08-15T09:22:48.168Z,79.83
2023-08-15T09:23:52.969Z,79.00
2023-08-15T09:24:55.555Z,78.17
2023-08-15T09:25:58.267Z,78.00
2023-08-15T09:27:07.254Z,77.50
2023-08-15T09:28:09.892Z,79.50
2023-08-15T09:29:13.735Z,89.50
2023-08-15T09:30:18.455Z,99.33
2023-08-15T09:31:21.246Z,97.67
2023-08-15T09:32:23.887Z,94.17
2023-08-15T09:33:26.506Z,92.33
2023-08-15T09:34:29.185Z,91.50
2023-08-15T09:35:35.431Z,91.17
2023-08-15T09:36:40.230Z,93.33
2023-08-15T09:37:48.159Z,94.33
2023-08-15T09:38:57.579Z,94.83
2023-08-15T09:40:00.539Z,92.17
2023-08-15T09:41:03.785Z,82.50
2023-08-15T09:42:06.953Z,77.33
2023-08-15T09:43:15.607Z,66.33
2023-08-15T09:44:34.586Z,63.50
2023-08-15T09:45:38.426Z,66.50
2023-08-15T09:46:43.281Z,67.83
2023-08-15T09:47:46.651Z,70.50
2023-08-15T09:48:50.543Z,77.00
2023-08-15T09:49:54.368Z,77.00
2023-08-15T09:50:58.017Z,78.33
2023-08-15T09:52:03.635Z,85.83
2023-08-15T09:53:06.371Z,97.33
2023-08-15T09:54:09.638Z,94.17
2023-08-15T09:55:14.406Z,92.50
2023-08-15T09:56:19.209Z,91.17
2023-08-15T09:57:22.389Z,89.33
2023-08-15T09:58:25.175Z,85.83
2023-08-15T09:59:27.781Z,83.00
2023-08-15T10:00:31.268Z,77.33
2023-08-15T10:01:34.742Z,74.33
2023-08-15T10:02:44.147Z,75.17
2023-08-15T10:03:47.775Z,80.83
2023-08-15T10:05:07.599Z,87.00
2023-08-15T10:06:14.145Z,90.00
2023-08-15T10:07:17.938Z,89.33
2023-08-15T10:08:21.730Z,84.50
2023-08-15T10:09:26.355Z,79.33
2023-08-15T10:10:31.640Z,78.00
2023-08-15T10:11:38.044Z,80.33
2023-08-15T10:12:41.837Z,90.50
2023-08-15T10:13:46.422Z,105.50
2023-08-15T10:14:49.950Z,119.50
2023-08-15T10:15:54.353Z,135.17
2023-08-15T10:16:57.258Z,118.67
2023-08-15T10:18:00.241Z,108.83
2023-08-15T10:19:03.278Z,81.33
2023-08-15T10:20:07.704Z,65.17
2023-08-15T10:21:10.473Z,65.83
2023-08-15T10:22:19.109Z,57.67
2023-08-15T10:23:25.505Z,55.67
2023-08-15T10:24:30.578Z,59.17
2023-08-15T10:25:36.471Z,63.33
2023-08-15T10:26:39.925Z,67.17
2023-08-15T10:27:47.402Z,78.50
2023-08-15T10:28:50.499Z,93.00
2023-08-15T10:30:00.032Z,97.83
2023-08-15T10:31:02.836Z,110.50
2023-08-15T10:32:06.340Z,129.83
2023-08-15T10:33:15.016Z,122.17
2023-08-15T10:34:19.308Z,110.83
2023-08-15T10:35:32.364Z,106.83
2023-08-15T10:36:35.889Z,95.33
2023-08-15T10:37:40.226Z,93.17
2023-08-15T10:38:45.371Z,94.83
2023-08-15T10:40:12.483Z,95.00
2023-08-15T10:41:16.625Z,95.17
2023-08-15T10:42:19.291Z,101.00
2023-08-15T10:43:26.308Z,101.33
2023-08-15T10:44:28.938Z,79.83
2023-08-15T10:45:32.503Z,77.50
2023-08-15T10:46:36.851Z,80.67
2023-08-15T10:47:47.103Z,92.83
2023-08-15T10:49:58.413Z,103.83
2023-08-15T10:51:00.996Z,100.33
2023-08-15T10:52:03.711Z,92.00
2023-08-15T10:53:07.191Z,75.33
2023-08-15T10:54:17.740Z,64.67
2023-08-15T10:55:20.373Z,61.00
2023-08-15T10:56:25.239Z,61.00
2023-08-15T10:57:28.194Z,65.83
2023-08-15T10:58:31.705Z,70.33
2023-08-15T10:59:37.341Z,74.50
2023-08-15T11:00:41.559Z,74.33
2023-08-15T11:01:46.241Z,72.33
2023-08-15T11:02:49.365Z,72.83
2023-08-15T11:03:53.877Z,75.50
2023-08-15T11:04:56.537Z,76.00
2023-08-15T11:06:14.850Z,75.00
2023-08-15T11:07:27.560Z,75.83
2023-08-15T11:08:30.163Z,79.50
2023-08-15T11:09:32.989Z,82.67
2023-08-15T11:10:35.708Z,85.17
2023-08-15T11:11:38.335Z,90.17
2023-08-15T11:12:50.924Z,102.67
2023-08-15T11:13:55.245Z,107.67
2023-08-15T11:14:58.229Z,113.83
2023-08-15T11:16:00.915Z,110.33
2023-08-15T11:17:03.654Z,108.50
2023-08-15T11:18:06.335Z,105.83
2023-08-15T11:19:09.094Z,104.50
2023-08-15T11:20:12.064Z,104.00
2023-08-15T11:21:15.984Z,103.33
2023-08-15T11:22:18.616Z,100.17
2023-08-15T11:23:22.466Z,99.00
2023-08-15T11:24:25.053Z,99.00
2023-08-15T11:25:27.692Z,97.50
2023-08-15T11:26:30.459Z,101.00
2023-08-15T11:27:33.090Z,106.50
2023-08-15T11:28:36.488Z,105.83
2023-08-15T11:29:39.076Z,104.83
2023-08-15T11:30:42.340Z,94.67
2023-08-15T11:31:45.251Z,83.50
2023-08-15T11:32:47.907Z,76.17
2023-08-15T11:33:52.836Z,80.33
2023-08-15T11:34:56.963Z,80.33
2023-08-15T11:36:01.231Z,82.50
2023-08-15T11:37:03.806Z,86.50
2023-08-15T11:38:11.401Z,107.00
2023-08-15T11:39:14.352Z,118.83
2023-08-15T11:40:17.156Z,111.00
2023-08-15T11:41:19.923Z,108.33
2023-08-15T11:42:23.288Z,102.50
2023-08-15T11:43:30.301Z,79.67
2023-08-15T11:44:32.925Z,74.33
2023-08-15T11:45:35.673Z,78.17
2023-08-15T11:46:53.060Z,80.33
2023-08-15T11:48:03.984Z,69.00
2023-08-15T11:49:06.643Z,70.00
2023-08-15T11:50:10.891Z,66.00
2023-08-15T11:51:20.908Z,64.17
2023-08-15T11:52:23.902Z,59.17
2023-08-15T11:53:27.118Z,63.17
2023-08-15T11:54:29.757Z,65.00
2023-08-15T11:55:34.568Z,66.17
2023-08-15T11:56:53.254Z,67.33
2023-08-15T11:57:56.048Z,68.00
2023-08-15T11:59:01.593Z,68.17
2023-08-15T12:01:13.349Z,72.50
2023-08-15T12:02:15.997Z,89.50
2023-08-15T12:03:18.733Z,104.83
2023-08-15T12:04:21.380Z,105.67
2023-08-15T12:05:24.035Z,107.33
2023-08-15T12:06:27.188Z,101.67
2023-08-15T12:07:31.741Z,99.17
2023-08-15T12:08:34.480Z,103.33
2023-08-15T12:09:37.285Z,101.00
2023-08-15T12:10:42.042Z,99.33
2023-08-15T12:11:45.094Z,99.33
2023-08-15T12:12:48.718Z,101.83
2023-08-15T12:13:51.406Z,100.33
2023-08-15T12:14:54.000Z,97.17
2023-08-15T12:15:56.657Z,93.33
2023-08-15T12:16:59.257Z,87.17
2023-08-15T12:18:01.896Z,84.50
2023-08-15T12:19:04.523Z,80.00
2023-08-15T12:20:17.316Z,75.00
2023-08-15T12:21:19.899Z,75.50
2023-08-15T12:22:22.681Z,76.00
2023-08-15T12:23:28.624Z,73.83
2023-08-15T12:24:31.944Z,72.83
2023-08-15T12:25:34.558Z,73.00
2023-08-15T12:26:37.194Z,72.00
2023-08-15T12:27:39.804Z,74.67
2023-08-15T12:28:42.532Z,74.67
2023-08-15T12:30:12.984Z,70.17
2023-08-15T12:31:07.940Z,49.67
2023-08-15T12:32:10.605Z,45.67
2023-08-15T12:33:16.068Z,46.50
2023-08-15T12:34:23.754Z,45.50
2023-08-15T12:35:26.377Z,45.50
2023-08-15T12:36:29.006Z,44.33
2023-08-15T12:37:31.965Z,43.00
2023-08-15T12:38:34.532Z,45.50
2023-08-15T12:40:30.451Z,47.00
2023-08-15T12:41:34.057Z,44.67
2023-08-15T12:42:36.679Z,43.17
2023-08-15T12:43:39.541Z,42.50
2023-08-15T12:44:43.363Z,42.33
2023-08-15T12:45:46.569Z,43.00
2023-08-15T12:46:49.320Z,43.50
2023-08-15T12:47:52.024Z,44.83
2023-08-15T12:48:57.591Z,46.00
2023-08-15T12:50:00.685Z,47.50
2023-08-15T12:51:03.251Z,50.33
2023-08-15T12:52:07.450Z,54.17
2023-08-15T12:53:10.681Z,56.00
2023-08-15T12:54:13.313Z,62.00
2023-08-15T12:55:16.015Z,72.50
2023-08-15T12:56:19.173Z,78.50
2023-08-15T12:57:21.813Z,74.00
2023-08-15T12:58:24.438Z,71.67
2023-08-15T12:59:27.398Z,71.83
2023-08-15T13:00:30.926Z,75.00
2023-08-15T13:01:33.820Z,73.33
2023-08-15T13:02:37.040Z,72.17
2023-08-15T13:03:39.627Z,70.00
2023-08-15T13:04:42.248Z,60.00
2023-08-15T13:05:44.839Z,51.00
2023-08-15T13:06:47.425Z,50.67
2023-08-15T13:07:51.158Z,52.67
2023-08-15T13:08:53.802Z,57.33
2023-08-15T13:09:56.418Z,63.50
2023-08-15T13:10:59.056Z,70.33
2023-08-15T13:12:02.514Z,73.67
2023-08-15T13:13:05.275Z,73.17
2023-08-15T13:14:07.915Z,80.33
2023-08-15T13:15:12.448Z,90.33
2023-08-15T13:16:15.184Z,89.50
2023-08-15T13:17:17.812Z,89.00
2023-08-15T13:18:20.500Z,96.00
2023-08-15T13:19:23.127Z,97.00
2023-08-15T13:20:26.013Z,93.17
2023-08-15T13:21:31.590Z,91.83
2023-08-15T13:22:34.228Z,90.67
2023-08-15T13:23:36.855Z,91.33
2023-08-15T13:24:39.515Z,92.50
2023-08-15T13:25:42.180Z,91.00
2023-08-15T13:26:44.761Z,90.17
2023-08-15T13:27:47.363Z,89.33
2023-08-15T13:28:50.117Z,88.17